Rotterdam — PDGS — position and weather

sailwx.info

Track history (hours):
 
Tides and Currents Weather Stations Pressure Air Temp Water Temp Dewpoint Dewpoint Depression Visibility Wind Speed Wind Dir Waves Ship Positions

Rotterdam

Operator: Holland America Line

Last reported at 2017-Nov-11 11:09 UTC. Time now 2017-Nov-18 19:30 UTC.
Position N 14°01' W 061°01'.

Length 228 m; beam 29 m.

Type: Ship. MMSI: 24616700.

Date/timePositionNaut miles runAvg speedWind from/ knotsBaromVisibWave heightAir tempDewpointWater temp
2017-Nov-11 11:09N 14°01' W 061°01'1 7.3
2017-Nov-11 11:00N 14°02' W 061°01'815.1
2017-Nov-11 10:31N 14°06' W 061°08'815.1
2017-Nov-11 10:00N 14°10' W 061°15'815.5
2017-Nov-11 09:31N 14°17' W 061°18'815.4
2017-Nov-11 09:00N 14°24' W 061°21'714.9
2017-Nov-11 08:31N 14°31' W 061°24'816.4
2017-Nov-11 08:01N 14°39' W 061°27'2415.3
2017-Nov-11 06:25N 15°01' W 061°37'715.8
2017-Nov-11 06:00N 15°07' W 061°40'1616.0
2017-Nov-11 04:58N 15°23' W 061°45'1015.9
2017-Nov-11 04:19N 15°32' W 061°49'2415.6
2017-Nov-11 02:46N 15°55' W 061°57'416.9
2017-Nov-11 02:30N 15°60' W 061°57'817.1
2017-Nov-11 02:01N 16°08' W 061°59'917.6
2017-Nov-11 01:31N 16°17' W 062°00'917.7
2017-Nov-11 01:01N 16°26' W 062°01'917.6
2017-Nov-11 00:31N 16°34' W 062°03'917.7
2017-Nov-11 00:01N 16°43' W 062°04'917.5
2017-Nov-10 23:31N 16°52' W 062°06'917.4
2017-Nov-10 23:01N 17°00' W 062°07'816.4
2017-Nov-10 22:31N 17°08' W 062°06'816.1
2017-Nov-10 22:01N 17°11' W 061°58'713.6
2017-Nov-10 21:30N 17°08' W 061°52'1 2.5
2017-Nov-10 21:00N 17°07' W 061°51'0 0.0
2017-Nov-10 20:30N 17°07' W 061°51'0 0.0
2017-Nov-10 20:00N 17°07' W 061°51'0 0.0
2017-Nov-10 19:30N 17°07' W 061°51'0 0.0
2017-Nov-10 18:57N 17°07' W 061°51'0 0.0
2017-Nov-10 18:28N 17°07' W 061°51'0 0.0
2017-Nov-10 17:55N 17°07' W 061°51'0 0.0
2017-Nov-10 17:28N 17°07' W 061°51'0 0.0
2017-Nov-10 16:58N 17°07' W 061°51'0 0.0
2017-Nov-10 16:28N 17°07' W 061°51'0 0.0
2017-Nov-10 15:58N 17°07' W 061°51'0 0.0
2017-Nov-10 15:28N 17°07' W 061°51'0 0.0
2017-Nov-10 14:58N 17°07' W 061°51'0 0.0
2017-Nov-10 14:28N 17°07' W 061°51'0 0.0
2017-Nov-10 13:58N 17°07' W 061°51'0 0.0
2017-Nov-10 13:19N 17°07' W 061°51'0 0.0
2017-Nov-10 12:58N 17°07' W 061°51'0 0.0
2017-Nov-10 12:28N 17°07' W 061°51'0 0.0
2017-Nov-10 11:58N 17°07' W 061°51'0 0.1
2017-Nov-10 11:31N 17°07' W 061°51'3 5.6
2017-Nov-10 11:01N 17°08' W 061°54'611.8
2017-Nov-10 10:30N 17°11' W 061°59'611.5
2017-Nov-10 10:01N 17°11' W 062°05'612.8
2017-Nov-10 09:31N 17°05' W 062°09'612.4
2017-Nov-10 09:00N 17°00' W 062°13'612.2
2017-Nov-10 08:30N 16°55' W 062°16'612.1
2017-Nov-10 08:01N 16°51' W 062°20'612.2
2017-Nov-10 07:31N 16°46' W 062°24'611.7
2017-Nov-10 07:01N 16°45' W 062°30'33 8.3
2017-Nov-10 03:05N 17°15' W 062°43'212.2
2017-Nov-10 02:57N 17°17' W 062°43'1 0.4
2017-Nov-10 01:08N 17°17' W 062°43'0 0.0
2017-Nov-10 00:31N 17°17' W 062°43'0 0.0
2017-Nov-10 00:13N 17°17' W 062°43'0 0.0
2017-Nov-09 22:33N 17°17' W 062°43'0 0.0
2017-Nov-09 22:04N 17°17' W 062°43'0 0.0
2017-Nov-09 19:48N 17°17' W 062°43'0 0.0
2017-Nov-09 19:28N 17°17' W 062°43'0 0.0
2017-Nov-09 18:58N 17°17' W 062°43'0 0.0
2017-Nov-09 18:24N 17°17' W 062°43'0 0.0
2017-Nov-09 17:51N 17°17' W 062°43'0 0.0
2017-Nov-09 17:13N 17°17' W 062°43'0 0.0
2017-Nov-09 17:00N 17°17' W 062°43'0 0.0
2017-Nov-09 16:22N 17°17' W 062°43'0 0.0
2017-Nov-09 15:52N 17°17' W 062°43'0 0.5
2017-Nov-09 15:26N 17°17' W 062°43'39911.1
2017-Nov-08 03:31N 19°43' W 069°14'115.0
2017-Nov-08 03:29N 19°43' W 069°15'815.1
2017-Nov-08 02:59N 19°46' W 069°22'815.4
2017-Nov-08 02:29N 19°48' W 069°30'815.4
2017-Nov-08 01:59N 19°51' W 069°38'815.4
2017-Nov-08 01:28N 19°53' W 069°46'  
2017-Nov-05 02:14N 27°24' W 083°03'520.7
2017-Nov-05 01:59N 27°29' W 083°02'1613.8
2017-Nov-05 00:49N 27°37' W 082°46'515.9
2017-Nov-05 00:30N 27°37' W 082°41'714.3
2017-Nov-05 00:00N 27°41' W 082°34'611.9
2017-Nov-04 23:31N 27°47' W 082°31'611.6
2017-Nov-04 23:00N 27°51' W 082°27'4 8.9
2017-Nov-04 22:31N 27°55' W 082°27'2 3.5
2017-Nov-04 22:01N 27°57' W 082°27'0 0.0
2017-Nov-04 21:29N 27°57' W 082°27'0 0.0
2017-Nov-04 20:59N 27°57' W 082°27'0 0.0
2017-Nov-04 20:29N 27°57' W 082°27'0 0.0
2017-Nov-04 19:59N 27°57' W 082°27'0 0.0
2017-Nov-04 19:29N 27°57' W 082°27'0 0.0
2017-Nov-04 18:59N 27°57' W 082°27'0 0.0
2017-Nov-04 18:29N 27°57' W 082°27'0 0.0
2017-Nov-04 17:59N 27°57' W 082°27'0 0.0
2017-Nov-04 17:30N 27°57' W 082°27'0 0.0
2017-Nov-04 16:59N 27°57' W 082°27'0 0.0
2017-Nov-04 16:29N 27°57' W 082°27'0 0.0
2017-Nov-04 15:59N 27°57' W 082°27'0 0.0
2017-Nov-04 15:29N 27°57' W 082°27'0 0.0
2017-Nov-04 14:59N 27°57' W 082°27'0 0.0
2017-Nov-04 14:29N 27°57' W 082°27'0 0.0
2017-Nov-04 13:59N 27°57' W 082°27'0 0.0
2017-Nov-04 13:29N 27°57' W 082°27'0 0.0
2017-Nov-04 12:59N 27°57' W 082°27'0 0.0
2017-Nov-04 12:29N 27°57' W 082°27'0 0.0
2017-Nov-04 11:59N 27°57' W 082°27'0 0.0
2017-Nov-04 11:29N 27°57' W 082°27'0 0.0
2017-Nov-04 10:59N 27°57' W 082°27'0 0.4
2017-Nov-04 10:30N 27°57' W 082°27'1 2.1
2017-Nov-04 10:00N 27°56' W 082°27'2 4.4
2017-Nov-04 09:30N 27°53' W 082°26'611.3
2017-Nov-04 09:00N 27°48' W 082°29'612.8
2017-Nov-04 08:30N 27°43' W 082°33'714.4
2017-Nov-04 07:59N 27°38' W 082°39'714.6
2017-Nov-04 07:29N 27°37' W 082°47'914.5
2017-Nov-04 06:53N 27°36' W 082°57'21610.3
2017-Nov-03 09:53N 25°18' W 079°51'718.7
2017-Nov-03 09:30N 25°24' W 079°46'918.8
2017-Nov-03 09:00N 25°31' W 079°41'1019.5
2017-Nov-03 08:30N 25°40' W 079°35'1020.4
2017-Nov-03 08:00N 25°48' W 079°29'  
Track history (hours):
 
Tides and Currents Weather Stations Pressure Air Temp Water Temp Dewpoint Dewpoint Depression Visibility Wind Speed Wind Dir Waves Ship Positions

Rotterdam

Operator: Holland America Line

Last reported at 2017-Nov-11 11:09 UTC. Time now 2017-Nov-18 19:30 UTC.
Position N 14°01' W 061°01'.

Length 228 m; beam 29 m.

Type: Ship. MMSI: 24616700.

Date/timePositionNaut miles runAvg speedWind from/ knotsBaromVisibWave heightAir tempDewpointWater temp
2017-Nov-11 11:09N 14°01' W 061°01'1 7.3
2017-Nov-11 11:00N 14°02' W 061°01'815.1
2017-Nov-11 10:31N 14°06' W 061°08'815.1
2017-Nov-11 10:00N 14°10' W 061°15'815.5
2017-Nov-11 09:31N 14°17' W 061°18'815.4
2017-Nov-11 09:00N 14°24' W 061°21'714.9
2017-Nov-11 08:31N 14°31' W 061°24'816.4
2017-Nov-11 08:01N 14°39' W 061°27'2415.3
2017-Nov-11 06:25N 15°01' W 061°37'715.8
2017-Nov-11 06:00N 15°07' W 061°40'1616.0
2017-Nov-11 04:58N 15°23' W 061°45'1015.9
2017-Nov-11 04:19N 15°32' W 061°49'2415.6
2017-Nov-11 02:46N 15°55' W 061°57'416.9
2017-Nov-11 02:30N 15°60' W 061°57'817.1
2017-Nov-11 02:01N 16°08' W 061°59'917.6
2017-Nov-11 01:31N 16°17' W 062°00'917.7
2017-Nov-11 01:01N 16°26' W 062°01'917.6
2017-Nov-11 00:31N 16°34' W 062°03'917.7
2017-Nov-11 00:01N 16°43' W 062°04'917.5
2017-Nov-10 23:31N 16°52' W 062°06'917.4
2017-Nov-10 23:01N 17°00' W 062°07'816.4
2017-Nov-10 22:31N 17°08' W 062°06'816.1
2017-Nov-10 22:01N 17°11' W 061°58'713.6
2017-Nov-10 21:30N 17°08' W 061°52'1 2.5
2017-Nov-10 21:00N 17°07' W 061°51'0 0.0
2017-Nov-10 20:30N 17°07' W 061°51'0 0.0
2017-Nov-10 20:00N 17°07' W 061°51'0 0.0
2017-Nov-10 19:30N 17°07' W 061°51'0 0.0
2017-Nov-10 18:57N 17°07' W 061°51'0 0.0
2017-Nov-10 18:28N 17°07' W 061°51'0 0.0
2017-Nov-10 17:55N 17°07' W 061°51'0 0.0
2017-Nov-10 17:28N 17°07' W 061°51'0 0.0
2017-Nov-10 16:58N 17°07' W 061°51'0 0.0
2017-Nov-10 16:28N 17°07' W 061°51'0 0.0
2017-Nov-10 15:58N 17°07' W 061°51'0 0.0
2017-Nov-10 15:28N 17°07' W 061°51'0 0.0
2017-Nov-10 14:58N 17°07' W 061°51'0 0.0
2017-Nov-10 14:28N 17°07' W 061°51'0 0.0
2017-Nov-10 13:58N 17°07' W 061°51'0 0.0
2017-Nov-10 13:19N 17°07' W 061°51'0 0.0
2017-Nov-10 12:58N 17°07' W 061°51'0 0.0
2017-Nov-10 12:28N 17°07' W 061°51'0 0.0
2017-Nov-10 11:58N 17°07' W 061°51'0 0.1
2017-Nov-10 11:31N 17°07' W 061°51'3 5.6
2017-Nov-10 11:01N 17°08' W 061°54'611.8
2017-Nov-10 10:30N 17°11' W 061°59'611.5
2017-Nov-10 10:01N 17°11' W 062°05'612.8
2017-Nov-10 09:31N 17°05' W 062°09'612.4
2017-Nov-10 09:00N 17°00' W 062°13'612.2
2017-Nov-10 08:30N 16°55' W 062°16'612.1
2017-Nov-10 08:01N 16°51' W 062°20'612.2
2017-Nov-10 07:31N 16°46' W 062°24'611.7
2017-Nov-10 07:01N 16°45' W 062°30'33 8.3
2017-Nov-10 03:05N 17°15' W 062°43'212.2
2017-Nov-10 02:57N 17°17' W 062°43'1 0.4
2017-Nov-10 01:08N 17°17' W 062°43'0 0.0
2017-Nov-10 00:31N 17°17' W 062°43'0 0.0
2017-Nov-10 00:13N 17°17' W 062°43'0 0.0
2017-Nov-09 22:33N 17°17' W 062°43'0 0.0
2017-Nov-09 22:04N 17°17' W 062°43'0 0.0
2017-Nov-09 19:48N 17°17' W 062°43'0 0.0
2017-Nov-09 19:28N 17°17' W 062°43'0 0.0
2017-Nov-09 18:58N 17°17' W 062°43'0 0.0
2017-Nov-09 18:24N 17°17' W 062°43'0 0.0
2017-Nov-09 17:51N 17°17' W 062°43'0 0.0
2017-Nov-09 17:13N 17°17' W 062°43'0 0.0
2017-Nov-09 17:00N 17°17' W 062°43'0 0.0
2017-Nov-09 16:22N 17°17' W 062°43'0 0.0
2017-Nov-09 15:52N 17°17' W 062°43'0 0.5
2017-Nov-09 15:26N 17°17' W 062°43'39911.1
2017-Nov-08 03:31N 19°43' W 069°14'115.0
2017-Nov-08 03:29N 19°43' W 069°15'815.1
2017-Nov-08 02:59N 19°46' W 069°22'815.4
2017-Nov-08 02:29N 19°48' W 069°30'815.4
2017-Nov-08 01:59N 19°51' W 069°38'815.4
2017-Nov-08 01:28N 19°53' W 069°46'  
2017-Nov-05 02:14N 27°24' W 083°03'520.7
2017-Nov-05 01:59N 27°29' W 083°02'1613.8
2017-Nov-05 00:49N 27°37' W 082°46'515.9
2017-Nov-05 00:30N 27°37' W 082°41'714.3
2017-Nov-05 00:00N 27°41' W 082°34'611.9
2017-Nov-04 23:31N 27°47' W 082°31'611.6
2017-Nov-04 23:00N 27°51' W 082°27'4 8.9
2017-Nov-04 22:31N 27°55' W 082°27'2 3.5
2017-Nov-04 22:01N 27°57' W 082°27'0 0.0
2017-Nov-04 21:29N 27°57' W 082°27'0 0.0
2017-Nov-04 20:59N 27°57' W 082°27'0 0.0
2017-Nov-04 20:29N 27°57' W 082°27'0 0.0
2017-Nov-04 19:59N 27°57' W 082°27'0 0.0
2017-Nov-04 19:29N 27°57' W 082°27'0 0.0
2017-Nov-04 18:59N 27°57' W 082°27'0 0.0
2017-Nov-04 18:29N 27°57' W 082°27'0 0.0
2017-Nov-04 17:59N 27°57' W 082°27'0 0.0
2017-Nov-04 17:30N 27°57' W 082°27'0 0.0
2017-Nov-04 16:59N 27°57' W 082°27'0 0.0
2017-Nov-04 16:29N 27°57' W 082°27'0 0.0
2017-Nov-04 15:59N 27°57' W 082°27'0 0.0
2017-Nov-04 15:29N 27°57' W 082°27'0 0.0
2017-Nov-04 14:59N 27°57' W 082°27'0 0.0
2017-Nov-04 14:29N 27°57' W 082°27'0 0.0
2017-Nov-04 13:59N 27°57' W 082°27'0 0.0
2017-Nov-04 13:29N 27°57' W 082°27'0 0.0
2017-Nov-04 12:59N 27°57' W 082°27'0 0.0
2017-Nov-04 12:29N 27°57' W 082°27'0 0.0
2017-Nov-04 11:59N 27°57' W 082°27'0 0.0
2017-Nov-04 11:29N 27°57' W 082°27'0 0.0
2017-Nov-04 10:59N 27°57' W 082°27'0 0.4
2017-Nov-04 10:30N 27°57' W 082°27'1 2.1
2017-Nov-04 10:00N 27°56' W 082°27'2 4.4
2017-Nov-04 09:30N 27°53' W 082°26'611.3
2017-Nov-04 09:00N 27°48' W 082°29'612.8
2017-Nov-04 08:30N 27°43' W 082°33'714.4
2017-Nov-04 07:59N 27°38' W 082°39'714.6
2017-Nov-04 07:29N 27°37' W 082°47'914.5
2017-Nov-04 06:53N 27°36' W 082°57'21610.3
2017-Nov-03 09:53N 25°18' W 079°51'718.7
2017-Nov-03 09:30N 25°24' W 079°46'918.8
2017-Nov-03 09:00N 25°31' W 079°41'1019.5
2017-Nov-03 08:30N 25°40' W 079°35'1020.4
2017-Nov-03 08:00N 25°48' W 079°29'  

Dump ship's entire track history